createdAt,value
2019-02-18T00:02:22.458Z,19.77
2019-02-18T00:04:50.866Z,20.63
2019-02-18T00:07:19.290Z,22.00
2019-02-18T00:09:47.719Z,21.47
2019-02-18T00:12:16.033Z,19.40
2019-02-18T00:14:44.429Z,16.53
2019-02-18T00:17:12.801Z,17.90
2019-02-18T00:19:41.182Z,18.67
2019-02-18T00:22:09.611Z,17.37
2019-02-18T00:24:37.999Z,19.47
2019-02-18T00:27:06.364Z,18.73
2019-02-18T00:29:34.754Z,17.93
2019-02-18T00:32:03.187Z,18.97
2019-02-18T00:34:31.586Z,22.13
2019-02-18T00:37:00.015Z,19.60
2019-02-18T00:39:28.474Z,22.10
2019-02-18T00:41:56.832Z,21.67
2019-02-18T00:44:25.297Z,21.13
2019-02-18T00:46:53.647Z,20.30
2019-02-18T00:49:22.040Z,22.20
2019-02-18T00:51:50.407Z,21.07
2019-02-18T00:54:18.798Z,21.77
2019-02-18T00:56:47.167Z,22.67
2019-02-18T00:59:15.570Z,18.23
2019-02-18T01:01:43.994Z,20.33
2019-02-18T01:04:12.391Z,24.20
2019-02-18T01:06:40.752Z,19.87
2019-02-18T01:09:09.221Z,22.07
2019-02-18T01:11:37.575Z,23.43
2019-02-18T01:14:06.043Z,23.73
2019-02-18T01:16:34.408Z,27.70
2019-02-18T01:19:02.865Z,22.23
2019-02-18T01:21:31.368Z,18.87
2019-02-18T01:23:59.762Z,20.63
2019-02-18T01:26:28.121Z,22.27
2019-02-18T01:28:56.529Z,19.03
2019-02-18T01:31:24.958Z,18.93
2019-02-18T01:33:53.310Z,20.47
2019-02-18T01:36:23.165Z,21.37
2019-02-18T01:38:51.654Z,21.17
2019-02-18T01:41:20.050Z,18.00
2019-02-18T01:43:48.429Z,17.93
2019-02-18T01:46:16.801Z,20.27
2019-02-18T01:48:45.171Z,21.77
2019-02-18T01:51:13.576Z,19.27
2019-02-18T01:53:41.946Z,20.97
2019-02-18T01:56:10.337Z,21.00
2019-02-18T01:58:38.713Z,19.77
2019-02-18T02:01:07.167Z,16.97
2019-02-18T02:03:35.605Z,22.73
2019-02-18T02:06:04.067Z,19.63
2019-02-18T02:08:32.487Z,18.17
2019-02-18T02:11:00.884Z,18.40
2019-02-18T02:13:31.415Z,23.03
2019-02-18T02:16:00.926Z,18.97
2019-02-18T02:18:29.381Z,20.50
2019-02-18T02:20:57.847Z,17.53
2019-02-18T02:23:26.278Z,18.13
2019-02-18T02:25:54.680Z,18.73
2019-02-18T02:28:23.033Z,19.33
2019-02-18T02:30:51.500Z,21.50
2019-02-18T02:33:19.860Z,44.60
2019-02-18T02:35:48.247Z,23.73
2019-02-18T02:38:16.683Z,18.63
2019-02-18T02:40:45.141Z,17.33
2019-02-18T02:43:13.586Z,19.93
2019-02-18T02:45:41.945Z,16.90
2019-02-18T02:48:10.486Z,16.77
2019-02-18T02:50:38.922Z,19.63
2019-02-18T02:53:07.338Z,19.80
2019-02-18T02:55:35.763Z,19.00
2019-02-18T02:58:04.231Z,20.60
2019-02-18T03:00:32.673Z,17.00
2019-02-18T03:03:01.072Z,21.77
2019-02-18T03:05:29.504Z,18.20
2019-02-18T03:07:57.922Z,23.13
2019-02-18T03:10:26.265Z,21.07
2019-02-18T03:12:54.735Z,16.47
2019-02-18T03:15:23.099Z,19.50
2019-02-18T03:17:51.555Z,19.37
2019-02-18T03:20:19.991Z,16.73
2019-02-18T03:22:48.385Z,18.23
2019-02-18T03:25:24.676Z,20.43
2019-02-18T03:28:13.335Z,16.80
2019-02-18T03:30:47.744Z,17.27
2019-02-18T03:33:21.902Z,19.60
2019-02-18T03:35:50.243Z,17.50
2019-02-18T03:38:18.641Z,20.97
2019-02-18T03:40:47.092Z,16.63
2019-02-18T03:43:15.483Z,15.90
2019-02-18T03:45:43.909Z,15.97
2019-02-18T03:48:12.298Z,14.40
2019-02-18T03:50:40.655Z,15.10
2019-02-18T03:53:09.126Z,16.60
2019-02-18T03:55:37.567Z,16.37
2019-02-18T03:58:06.032Z,15.13
2019-02-18T04:00:34.487Z,18.30
2019-02-18T04:03:02.926Z,15.60
2019-02-18T04:05:31.510Z,15.20
2019-02-18T04:07:59.940Z,18.90
2019-02-18T04:10:28.326Z,15.13
2019-02-18T04:12:56.687Z,13.33
2019-02-18T04:15:25.146Z,15.63
2019-02-18T04:17:53.503Z,15.03
2019-02-18T04:20:21.896Z,19.07
2019-02-18T04:22:50.256Z,15.33
2019-02-18T04:25:18.658Z,19.27
2019-02-18T04:27:47.020Z,15.67
2019-02-18T04:30:15.491Z,17.07
2019-02-18T04:32:43.920Z,16.83
2019-02-18T04:35:12.318Z,14.80
2019-02-18T04:37:40.678Z,15.27
2019-02-18T04:40:09.433Z,16.47
2019-02-18T04:42:40.158Z,19.10
2019-02-18T04:45:10.534Z,15.33
2019-02-18T04:47:42.741Z,14.47
2019-02-18T04:50:13.210Z,14.63
2019-02-18T04:52:41.571Z,14.93
2019-02-18T04:55:11.110Z,13.63
2019-02-18T04:57:39.546Z,16.43
2019-02-18T05:00:09.727Z,14.67
2019-02-18T05:02:38.060Z,15.10
2019-02-18T05:05:10.927Z,15.37
2019-02-18T05:07:39.329Z,15.37
2019-02-18T05:10:12.049Z,16.77
2019-02-18T05:12:40.408Z,14.07
2019-02-18T05:15:09.541Z,16.00
2019-02-18T05:17:37.932Z,15.13
2019-02-18T05:20:07.454Z,15.83
2019-02-18T05:22:35.891Z,12.77
2019-02-18T05:25:05.920Z,14.27
2019-02-18T05:27:34.292Z,15.00
2019-02-18T05:30:02.817Z,13.17
2019-02-18T05:32:31.614Z,17.57
2019-02-18T05:35:02.426Z,15.60
2019-02-18T05:37:30.762Z,21.53
2019-02-18T05:39:59.139Z,22.07
2019-02-18T05:42:27.571Z,21.73
2019-02-18T05:44:56.681Z,22.27
2019-02-18T05:47:25.098Z,18.43
2019-02-18T05:49:53.734Z,19.83
2019-02-18T05:52:22.217Z,19.13
2019-02-18T05:54:50.544Z,17.73
2019-02-18T05:57:19.013Z,17.83
2019-02-18T05:59:47.434Z,17.97
2019-02-18T06:02:16.623Z,16.03
2019-02-18T06:04:45.108Z,16.67
2019-02-18T06:07:13.454Z,14.50
2019-02-18T06:09:41.820Z,17.43
2019-02-18T06:12:10.278Z,19.60
2019-02-18T06:14:38.632Z,22.23
2019-02-18T06:17:07.099Z,21.47
2019-02-18T06:19:35.459Z,14.87
2019-02-18T06:22:03.926Z,16.20
2019-02-18T06:24:32.299Z,17.63
2019-02-18T06:27:00.690Z,17.97
2019-02-18T06:29:29.112Z,18.20
2019-02-18T06:31:57.592Z,17.50
2019-02-18T06:34:25.932Z,19.33
2019-02-18T06:36:54.349Z,19.43
2019-02-18T06:39:22.710Z,19.83
2019-02-18T06:41:51.125Z,22.37
2019-02-18T06:44:21.110Z,17.53
2019-02-18T06:46:54.063Z,19.33
2019-02-18T06:49:22.568Z,15.87
2019-02-18T06:51:50.956Z,20.37
2019-02-18T06:54:19.387Z,24.17
2019-02-18T06:56:55.520Z,20.20
2019-02-18T06:59:25.751Z,18.17
2019-02-18T07:02:01.946Z,17.57
2019-02-18T07:04:38.026Z,17.23
2019-02-18T07:07:24.578Z,21.83
2019-02-18T07:09:54.683Z,18.10
2019-02-18T07:12:24.729Z,18.77
2019-02-18T07:14:53.096Z,15.93
2019-02-18T07:17:21.553Z,16.47
2019-02-18T07:19:50.001Z,19.00
2019-02-18T07:22:18.833Z,20.77
2019-02-18T07:24:47.212Z,20.50
2019-02-18T07:27:15.571Z,19.30
2019-02-18T07:29:44.035Z,17.63
2019-02-18T07:32:12.405Z,15.83
2019-02-18T07:34:40.804Z,17.13
2019-02-18T07:37:09.198Z,16.57
2019-02-18T07:39:37.603Z,14.77
2019-02-18T07:42:06.058Z,15.47
2019-02-18T07:44:34.482Z,21.10
2019-02-18T07:47:02.920Z,17.00
2019-02-18T07:49:31.319Z,31.20
2019-02-18T07:51:59.687Z,20.43
2019-02-18T07:54:28.074Z,20.57
2019-02-18T07:56:56.506Z,22.07
2019-02-18T07:59:24.930Z,17.80
2019-02-18T08:01:53.268Z,20.77
2019-02-18T08:04:21.759Z,17.37
2019-02-18T08:06:50.163Z,17.67
2019-02-18T08:09:18.564Z,17.43
2019-02-18T08:11:46.934Z,21.50
2019-02-18T08:14:15.329Z,15.20
2019-02-18T08:16:43.684Z,19.30
2019-02-18T08:19:12.067Z,15.73
2019-02-18T08:21:40.479Z,18.07
2019-02-18T08:24:08.912Z,16.63
2019-02-18T08:26:38.593Z,21.83
2019-02-18T08:29:07.023Z,17.57
2019-02-18T08:31:35.454Z,16.47
2019-02-18T08:34:04.889Z,15.70
2019-02-18T08:36:33.311Z,17.70
2019-02-18T08:39:01.721Z,19.80
2019-02-18T08:41:30.089Z,18.70
2019-02-18T08:43:58.491Z,19.77
2019-02-18T08:46:26.915Z,17.10
2019-02-18T08:48:55.276Z,19.30
2019-02-18T08:51:23.720Z,18.47
2019-02-18T08:53:52.128Z,17.80
2019-02-18T08:56:20.519Z,17.60
2019-02-18T08:58:48.909Z,21.13
2019-02-18T09:01:17.287Z,15.93
2019-02-18T09:03:45.662Z,17.57
2019-02-18T09:06:14.058Z,18.67
2019-02-18T09:08:42.433Z,19.90
2019-02-18T09:11:10.900Z,20.33
2019-02-18T09:13:39.293Z,18.33
2019-02-18T09:16:07.777Z,18.77
2019-02-18T09:18:36.292Z,27.90
2019-02-18T09:21:04.967Z,22.23
2019-02-18T09:23:52.976Z,19.67
2019-02-18T09:26:21.531Z,20.50
2019-02-18T09:28:50.077Z,20.13
2019-02-18T09:31:20.146Z,20.97
2019-02-18T09:33:48.683Z,18.13
2019-02-18T09:36:17.121Z,18.27
2019-02-18T09:38:45.460Z,16.23
2019-02-18T09:41:13.997Z,19.70
2019-02-18T09:43:42.480Z,16.57
2019-02-18T09:46:10.977Z,18.30
2019-02-18T09:48:39.390Z,17.33
2019-02-18T09:51:07.859Z,18.40
2019-02-18T09:53:36.339Z,18.53
2019-02-18T09:56:04.837Z,16.43
2019-02-18T09:58:33.286Z,16.10
2019-02-18T10:01:01.739Z,19.30
2019-02-18T10:03:31.929Z,13.53
2019-02-18T10:06:00.387Z,17.27
2019-02-18T10:08:28.937Z,21.80
2019-02-18T10:10:57.304Z,12.77
2019-02-18T10:13:25.923Z,20.23
2019-02-18T10:15:54.340Z,14.83
2019-02-18T10:18:22.764Z,14.80
2019-02-18T10:20:51.197Z,13.60
2019-02-18T10:23:19.703Z,15.20
2019-02-18T10:25:48.209Z,13.13
2019-02-18T10:28:16.645Z,16.03
2019-02-18T10:30:45.014Z,13.50
2019-02-18T10:33:13.507Z,14.87
2019-02-18T10:35:41.871Z,13.10
2019-02-18T10:38:10.344Z,13.10
2019-02-18T10:40:38.702Z,16.77
2019-02-18T10:43:07.236Z,13.83
2019-02-18T10:45:35.575Z,17.47
2019-02-18T10:48:04.124Z,13.57
2019-02-18T10:50:32.585Z,12.27
2019-02-18T10:53:01.359Z,13.87
2019-02-18T10:55:29.945Z,12.17
2019-02-18T10:57:58.538Z,11.33
2019-02-18T11:00:28.141Z,12.33
2019-02-18T11:02:56.614Z,11.30
2019-02-18T11:05:25.026Z,10.50
2019-02-18T11:07:53.800Z,10.23
2019-02-18T11:10:22.143Z,12.63
2019-02-18T11:12:50.528Z,15.07
2019-02-18T11:15:18.939Z,9.57
2019-02-18T11:17:47.526Z,10.90
2019-02-18T11:20:15.921Z,8.17
2019-02-18T11:22:44.489Z,7.60
2019-02-18T11:25:16.052Z,8.30
2019-02-18T11:27:44.394Z,8.67
2019-02-18T11:30:17.093Z,9.20
2019-02-18T11:32:45.585Z,11.37
2019-02-18T11:35:14.113Z,6.90
2019-02-18T11:37:42.453Z,7.30
2019-02-18T11:40:13.280Z,8.53
2019-02-18T11:42:41.707Z,7.90
2019-02-18T11:45:14.961Z,6.60
2019-02-18T11:47:43.398Z,6.63
2019-02-18T11:50:15.294Z,8.77
2019-02-18T11:52:43.779Z,8.47
2019-02-18T11:55:15.289Z,10.70
2019-02-18T11:57:44.160Z,7.23
2019-02-18T12:00:17.111Z,9.83
2019-02-18T12:02:45.453Z,9.83
2019-02-18T12:05:14.111Z,4.57
2019-02-18T12:07:42.548Z,6.00
2019-02-18T12:10:11.994Z,9.17
2019-02-18T12:12:40.902Z,9.73
2019-02-18T12:15:16.009Z,6.07
2019-02-18T12:17:44.426Z,4.40
2019-02-18T12:20:16.406Z,7.07
2019-02-18T12:22:44.841Z,5.43
2019-02-18T12:25:13.743Z,4.03
2019-02-18T12:27:42.627Z,5.27
2019-02-18T12:30:18.521Z,3.83
2019-02-18T12:32:52.856Z,6.90
2019-02-18T12:35:30.465Z,10.03
2019-02-18T12:37:55.436Z,4.90
2019-02-18T12:40:22.856Z,3.13
2019-02-18T12:42:51.213Z,8.23
2019-02-18T12:45:19.760Z,3.70
2019-02-18T12:47:48.310Z,6.13
2019-02-18T12:50:20.706Z,4.70
2019-02-18T12:52:50.448Z,12.23
2019-02-18T12:55:19.181Z,5.03
2019-02-18T12:57:47.584Z,10.83
2019-02-18T13:00:16.661Z,8.83
2019-02-18T13:02:45.433Z,5.00
2019-02-18T13:05:14.798Z,6.20
2019-02-18T13:07:43.291Z,4.10
2019-02-18T13:10:12.125Z,6.43
2019-02-18T13:12:41.699Z,4.20
2019-02-18T13:15:18.011Z,4.53
2019-02-18T13:17:47.562Z,4.20
2019-02-18T13:20:15.946Z,6.03
2019-02-18T13:22:45.500Z,5.67
2019-02-18T13:25:14.283Z,3.90
2019-02-18T13:27:42.677Z,3.83
2019-02-18T13:30:21.680Z,3.23
2019-02-18T13:32:50.035Z,5.83
2019-02-18T13:35:18.483Z,4.10
2019-02-18T13:37:46.905Z,2.63
2019-02-18T13:40:16.257Z,5.23
2019-02-18T13:42:45.160Z,4.60
2019-02-18T13:45:13.590Z,4.40
2019-02-18T13:47:42.086Z,5.07
2019-02-18T13:50:14.152Z,7.07
2019-02-18T13:52:42.548Z,4.10
2019-02-18T13:55:12.238Z,2.70
2019-02-18T13:57:41.232Z,8.57
2019-02-18T14:00:17.135Z,6.63
2019-02-18T14:02:46.642Z,4.47
2019-02-18T14:05:15.750Z,3.13
2019-02-18T14:07:44.906Z,2.87
2019-02-18T14:10:13.628Z,3.13
2019-02-18T14:12:42.322Z,2.60
2019-02-18T14:15:13.576Z,5.90
2019-02-18T14:17:42.022Z,2.80
2019-02-18T14:20:14.718Z,5.20
2019-02-18T14:22:43.186Z,2.50
2019-02-18T14:25:12.138Z,2.37
2019-02-18T14:27:40.591Z,2.40
2019-02-18T14:30:12.116Z,2.50
2019-02-18T14:32:40.501Z,3.80
2019-02-18T14:35:09.288Z,5.70
2019-02-18T14:37:37.738Z,4.30
2019-02-18T14:40:07.377Z,7.93
2019-02-18T14:42:35.828Z,10.20
2019-02-18T14:45:05.007Z,3.03
2019-02-18T14:47:33.469Z,6.80
2019-02-18T14:50:01.817Z,4.43
2019-02-18T14:52:30.439Z,5.93
2019-02-18T14:54:58.798Z,2.60
2019-02-18T14:57:27.177Z,5.13
2019-02-18T14:59:55.516Z,4.13
2019-02-18T15:02:23.988Z,5.60
2019-02-18T15:04:52.961Z,3.70
2019-02-18T15:07:21.499Z,2.43
2019-02-18T15:09:49.916Z,4.63
2019-02-18T15:12:19.482Z,5.07
2019-02-18T15:14:48.000Z,2.87
2019-02-18T15:17:16.374Z,3.83
2019-02-18T15:19:44.726Z,3.37
2019-02-18T15:22:13.170Z,3.67
2019-02-18T15:24:41.585Z,6.13
2019-02-18T15:27:10.319Z,2.47
2019-02-18T15:29:38.663Z,6.67
2019-02-18T15:32:07.194Z,3.23
2019-02-18T15:34:35.622Z,2.77
2019-02-18T15:37:03.967Z,2.67
2019-02-18T15:39:33.405Z,2.43
2019-02-18T15:42:01.826Z,4.73
2019-02-18T15:44:31.187Z,3.10
2019-02-18T15:46:59.680Z,4.77
2019-02-18T15:49:28.072Z,3.27
2019-02-18T15:51:56.510Z,5.83
2019-02-18T15:54:24.962Z,6.87
2019-02-18T15:56:55.193Z,4.17
2019-02-18T15:59:25.205Z,3.60
2019-02-18T16:01:53.718Z,4.63
2019-02-18T16:04:22.733Z,7.50
2019-02-18T16:06:51.833Z,4.67
2019-02-18T16:09:20.392Z,3.13
2019-02-18T16:11:49.313Z,4.60
2019-02-18T16:14:18.574Z,3.73
2019-02-18T16:16:46.997Z,5.23
2019-02-18T16:19:15.541Z,5.07
2019-02-18T16:21:43.961Z,3.47
2019-02-18T16:24:19.610Z,4.27
2019-02-18T16:26:42.419Z,2.93
2019-02-18T16:29:10.886Z,3.83
2019-02-18T16:31:39.419Z,2.80
2019-02-18T16:34:08.385Z,3.93
2019-02-18T16:36:37.187Z,2.83
2019-02-18T16:39:06.546Z,2.50
2019-02-18T16:41:36.230Z,2.70
2019-02-18T16:44:04.897Z,4.70
2019-02-18T16:46:33.621Z,4.20
2019-02-18T16:49:02.389Z,2.93
2019-02-18T16:51:30.874Z,6.80
2019-02-18T16:54:00.948Z,4.23
2019-02-18T16:56:29.385Z,2.63
2019-02-18T16:58:58.212Z,4.93
2019-02-18T17:01:26.631Z,5.10
2019-02-18T17:03:55.082Z,3.33
2019-02-18T17:06:23.498Z,3.90
2019-02-18T17:08:51.883Z,3.77
2019-02-18T17:11:20.351Z,5.73
2019-02-18T17:13:48.831Z,3.83
2019-02-18T17:16:17.569Z,4.60
2019-02-18T17:18:46.290Z,4.43
2019-02-18T17:21:18.537Z,3.83
2019-02-18T17:23:46.971Z,4.03
2019-02-18T17:26:17.156Z,3.53
2019-02-18T17:28:45.509Z,3.20
2019-02-18T17:31:14.441Z,3.23
2019-02-18T17:33:42.792Z,3.63
2019-02-18T17:36:11.175Z,7.37
2019-02-18T17:38:39.593Z,4.50
2019-02-18T17:41:08.116Z,7.80
2019-02-18T17:43:36.467Z,12.73
2019-02-18T17:46:04.921Z,8.67
2019-02-18T17:48:33.264Z,8.23
2019-02-18T17:51:01.639Z,7.50
2019-02-18T17:53:30.008Z,9.40
2019-02-18T17:55:58.694Z,12.53
2019-02-18T17:58:27.041Z,20.87
2019-02-18T18:00:58.851Z,12.30
2019-02-18T18:03:27.374Z,15.67
2019-02-18T18:05:55.752Z,15.70
2019-02-18T18:08:24.178Z,17.67
2019-02-18T18:10:52.568Z,22.80
2019-02-18T18:13:25.073Z,27.50
2019-02-18T18:15:51.021Z,36.90
2019-02-18T18:18:19.846Z,33.70
2019-02-18T18:20:48.441Z,30.47
2019-02-18T18:23:17.700Z,34.27
2019-02-18T18:25:47.710Z,26.87
2019-02-18T18:28:16.070Z,19.53
2019-02-18T18:30:44.544Z,14.90
2019-02-18T18:33:13.182Z,16.17
2019-02-18T18:35:41.649Z,19.97
2019-02-18T18:38:10.074Z,17.33
2019-02-18T18:40:38.531Z,14.30
2019-02-18T18:43:07.065Z,17.77
2019-02-18T18:45:35.579Z,15.20
2019-02-18T18:48:04.007Z,15.67
2019-02-18T18:50:32.399Z,14.73
2019-02-18T18:53:00.827Z,14.10
2019-02-18T18:55:29.290Z,18.33
2019-02-18T18:57:57.719Z,14.73
2019-02-18T19:00:26.862Z,14.50
2019-02-18T19:02:55.242Z,13.93
2019-02-18T19:05:23.732Z,15.67
2019-02-18T19:07:52.347Z,17.43
2019-02-18T19:10:20.768Z,15.73
2019-02-18T19:12:49.392Z,15.90
2019-02-18T19:15:18.687Z,16.10
2019-02-18T19:17:48.755Z,17.63
2019-02-18T19:20:17.248Z,16.30
2019-02-18T19:22:45.703Z,16.70
2019-02-18T19:25:14.326Z,14.80
2019-02-18T19:27:42.938Z,17.73
2019-02-18T19:30:15.110Z,18.80
2019-02-18T19:32:43.983Z,15.10
2019-02-18T19:35:12.501Z,17.33
2019-02-18T19:37:40.969Z,18.73
2019-02-18T19:40:12.089Z,20.73
2019-02-18T19:42:40.605Z,21.90
2019-02-18T19:45:12.862Z,23.47
2019-02-18T19:47:43.373Z,27.93
2019-02-18T19:50:11.974Z,25.03
2019-02-18T19:52:41.249Z,31.87
2019-02-18T19:55:15.457Z,24.43
2019-02-18T19:57:43.931Z,21.57
2019-02-18T20:00:17.576Z,18.63
2019-02-18T20:02:46.042Z,19.93
2019-02-18T20:05:14.560Z,21.83
2019-02-18T20:07:44.262Z,21.27
2019-02-18T20:10:13.134Z,17.63
2019-02-18T20:12:41.772Z,17.97
2019-02-18T20:15:13.047Z,17.07
2019-02-18T20:17:41.553Z,14.63
2019-02-18T20:20:14.392Z,14.87
2019-02-18T20:22:42.592Z,14.97
2019-02-18T20:25:11.183Z,15.00
2019-02-18T20:27:39.645Z,14.13
2019-02-18T20:30:11.166Z,17.03
2019-02-18T20:32:39.640Z,16.63
2019-02-18T20:35:11.153Z,15.27
2019-02-18T20:37:39.618Z,15.33
2019-02-18T20:40:09.524Z,17.90
2019-02-18T20:42:38.457Z,16.20
2019-02-18T20:45:14.588Z,15.17
2019-02-18T20:47:43.699Z,21.63
2019-02-18T20:50:15.809Z,17.00
2019-02-18T20:52:44.401Z,25.70
2019-02-18T20:55:16.867Z,24.77
2019-02-18T20:57:46.092Z,21.40
2019-02-18T21:00:19.366Z,18.30
2019-02-18T21:02:48.010Z,20.70
2019-02-18T21:05:16.370Z,20.77
2019-02-18T21:07:44.805Z,21.53
2019-02-18T21:10:16.273Z,22.73
2019-02-18T21:12:44.700Z,24.23
2019-02-18T21:15:13.162Z,18.33
2019-02-18T21:17:41.520Z,18.40
2019-02-18T21:20:11.657Z,20.27
2019-02-18T21:22:40.064Z,20.33
2019-02-18T21:25:10.569Z,29.23
2019-02-18T21:27:39.002Z,35.83
2019-02-18T21:30:18.086Z,43.23
2019-02-18T21:32:47.828Z,40.73
2019-02-18T21:35:16.251Z,39.97
2019-02-18T21:37:45.356Z,39.50
2019-02-18T21:40:13.888Z,47.77
2019-02-18T21:42:42.486Z,57.10
2019-02-18T21:45:15.768Z,49.83
2019-02-18T21:47:44.275Z,40.37
2019-02-18T21:50:15.692Z,38.60
2019-02-18T21:52:44.456Z,43.13
2019-02-18T21:55:13.424Z,41.77
2019-02-18T21:57:41.966Z,41.17
2019-02-18T22:00:20.653Z,38.43
2019-02-18T22:02:49.886Z,39.90
2019-02-18T22:05:19.153Z,45.50
2019-02-18T22:07:48.124Z,54.30
2019-02-18T22:10:16.655Z,50.03
2019-02-18T22:12:45.084Z,47.43
2019-02-18T22:15:15.551Z,49.33
2019-02-18T22:17:43.977Z,48.00
2019-02-18T22:20:14.501Z,48.33
2019-02-18T22:22:43.182Z,45.07
2019-02-18T22:25:12.935Z,46.07
2019-02-18T22:27:43.322Z,37.20
2019-02-18T22:30:16.408Z,32.87
2019-02-18T22:32:45.662Z,33.83
2019-02-18T22:35:14.913Z,29.17
2019-02-18T22:37:43.949Z,32.47
2019-02-18T22:40:13.429Z,29.47
2019-02-18T22:42:41.944Z,32.73
2019-02-18T22:45:11.903Z,27.43
2019-02-18T22:47:40.652Z,29.37
2019-02-18T22:50:11.094Z,26.83
2019-02-18T22:52:39.801Z,26.63
2019-02-18T22:55:09.937Z,31.87
2019-02-18T22:57:38.713Z,25.90
2019-02-18T23:00:12.941Z,33.17
2019-02-18T23:02:44.787Z,30.77
2019-02-18T23:05:14.207Z,30.03
2019-02-18T23:07:43.074Z,32.03
2019-02-18T23:10:12.566Z,29.83
2019-02-18T23:12:41.402Z,34.27
2019-02-18T23:15:10.129Z,31.77
2019-02-18T23:17:38.698Z,30.07
2019-02-18T23:20:10.188Z,27.73
2019-02-18T23:22:39.369Z,23.90
2019-02-18T23:25:08.021Z,31.00
2019-02-18T23:27:37.387Z,26.10
2019-02-18T23:30:06.820Z,28.90
2019-02-18T23:32:35.888Z,25.40
2019-02-18T23:35:05.763Z,26.07
2019-02-18T23:37:34.745Z,29.27
2019-02-18T23:40:03.409Z,29.27
2019-02-18T23:42:32.284Z,28.93
2019-02-18T23:45:00.808Z,23.47
2019-02-18T23:47:29.378Z,26.43
2019-02-18T23:50:00.753Z,20.40
2019-02-18T23:52:29.337Z,20.93
2019-02-18T23:54:57.702Z,23.33
2019-02-18T23:57:26.525Z,20.93
2019-02-18T23:59:55.078Z,17.13
